Time;durP1;ratioP1;P1;durP2;ratioP2;P2;SDS_P1;SDS_P2;PMS_P1;PMS_P2;Temp;Humidity;BMP_temperature;BMP_pressure;BME280_temperature;BME280_humidity;BME280_pressure;Samples;Min_cycle;Max_cycle;Signal;HPM_P1;HPM_P2
2023/06/11 00:01:23;;;;;;;24.98;13.75;;;;;;;;;;5018602;28;20052;-59
2023/06/11 00:03:53;;;;;;;24.35;13.95;;;;;;;;;;5018363;28;20045;-59
2023/06/11 00:06:22;;;;;;;23.88;13.38;;;;;;;;;;5002305;28;20483;-59
2023/06/11 00:08:54;;;;;;;21.55;12.57;;;;;;;;;;5021502;28;20052;-59
2023/06/11 00:11:21;;;;;;;25.98;14.05;;;;;;;;;;5015655;28;20046;-58
2023/06/11 00:13:49;;;;;;;21.58;12.43;;;;;;;;;;5017842;28;20045;-59
2023/06/11 00:16:16;;;;;;;24.60;13.25;;;;;;;;;;5021669;28;20033;-58
2023/06/11 00:18:42;;;;;;;24.73;13.27;;;;;;;;;;5021201;28;20052;-58
2023/06/11 00:21:10;;;;;;;23.75;13.43;;;;;;;;;;5017451;28;20307;-59
2023/06/11 00:23:37;;;;;;;21.77;13.15;;;;;;;;;;5018755;28;20484;-57
2023/06/11 00:26:07;;;;;;;24.92;13.75;;;;;;;;;;5021494;28;20053;-58
2023/06/11 00:28:34;;;;;;;27.20;14.75;;;;;;;;;;5021050;28;20399;-59
2023/06/11 00:31:03;;;;;;;23.55;13.95;;;;;;;;;;5016014;28;20077;-57
2023/06/11 00:33:30;;;;;;;25.90;14.27;;;;;;;;;;5015822;28;20396;-57
2023/06/11 00:35:56;;;;;;;23.90;13.85;;;;;;;;;;5016450;28;20037;-56
2023/06/11 00:38:22;;;;;;;23.05;13.30;;;;;;;;;;5016625;28;20052;-56
2023/06/11 00:40:48;;;;;;;27.85;14.13;;;;;;;;;;5018859;28;20053;-57
2023/06/11 00:43:21;;;;;;;28.85;14.63;;;;;;;;;;5009991;28;20038;-57
2023/06/11 00:45:50;;;;;;;22.38;12.52;;;;;;;;;;5017677;28;20041;-57
2023/06/11 00:48:19;;;;;;;20.58;12.77;;;;;;;;;;5012638;28;20050;-57
2023/06/11 00:50:49;;;;;;;20.83;12.25;;;;;;;;;;5018383;28;20046;-57
2023/06/11 00:53:18;;;;;;;22.77;12.63;;;;;;;;;;5051547;28;20054;-56
2023/06/11 00:55:45;;;;;;;23.27;13.02;;;;;;;;;;5014823;28;20029;-57
2023/06/11 00:58:17;;;;;;;22.30;12.27;;;;;;;;;;5023167;28;20033;-56
2023/06/11 01:00:46;;;;;;;20.38;11.27;;;;;;;;;;5013151;28;20034;-57
2023/06/11 01:03:18;;;;;;;20.35;12.55;;;;;;;;;;5021905;28;20060;-57
2023/06/11 01:06:01;;;;;;;20.92;11.60;;;;;;;;;;5016431;28;20050;-57
2023/06/11 01:08:30;;;;;;;17.92;11.00;;;;;;;;;;5020459;28;20035;-57
2023/06/11 01:10:59;;;;;;;18.58;11.52;;;;;;;;;;5004553;28;20052;-57
2023/06/11 01:13:28;;;;;;;20.85;12.18;;;;;;;;;;5018618;28;20494;-57
2023/06/11 01:16:15;;;;;;;18.52;11.43;;;;;;;;;;5022605;28;20076;-57
2023/06/11 01:19:29;;;;;;;19.77;10.82;;;;;;;;;;5015714;28;20037;-58
2023/06/11 01:22:05;;;;;;;18.38;10.85;;;;;;;;;;5018938;28;20418;-58
2023/06/11 01:24:42;;;;;;;16.50;10.02;;;;;;;;;;5015327;28;20045;-58
2023/06/11 01:27:32;;;;;;;19.38;9.93;;;;;;;;;;5003718;28;20384;-58
2023/06/11 01:30:00;;;;;;;15.48;10.15;;;;;;;;;;5021094;28;20045;-58
2023/06/11 01:32:27;;;;;;;16.50;9.10;;;;;;;;;;5016551;28;20050;-58
2023/06/11 01:35:03;;;;;;;15.75;10.02;;;;;;;;;;5013521;28;20045;-58
2023/06/11 01:37:38;;;;;;;17.08;9.50;;;;;;;;;;5007672;28;20053;-59
2023/06/11 01:40:06;;;;;;;15.50;9.95;;;;;;;;;;5033299;28;20030;-58
2023/06/11 01:42:45;;;;;;;13.68;9.50;;;;;;;;;;5051341;28;20052;-57
2023/06/11 01:45:11;;;;;;;14.82;9.23;;;;;;;;;;5008678;28;20042;-58
2023/06/11 01:47:38;;;;;;;14.07;8.48;;;;;;;;;;5010735;28;20041;-58
2023/06/11 01:50:05;;;;;;;11.27;8.48;;;;;;;;;;5015020;28;20041;-58
2023/06/11 01:52:32;;;;;;;13.85;9.20;;;;;;;;;;5025640;28;20033;-58
2023/06/11 01:54:58;;;;;;;12.02;8.60;;;;;;;;;;5025836;28;20037;-58
2023/06/11 01:57:24;;;;;;;11.45;8.63;;;;;;;;;;5021658;28;20514;-58
2023/06/11 01:59:50;;;;;;;11.85;8.65;;;;;;;;;;5019974;28;20042;-58
2023/06/11 02:02:16;;;;;;;12.20;8.52;;;;;;;;;;5023326;28;20044;-57
2023/06/11 02:04:42;;;;;;;14.32;9.10;;;;;;;;;;5025623;28;20079;-57
2023/06/11 02:07:08;;;;;;;13.82;8.43;;;;;;;;;;5022678;28;20034;-57
2023/06/11 02:09:35;;;;;;;11.43;8.00;;;;;;;;;;5035437;28;20038;-58
2023/06/11 02:12:01;;;;;;;11.77;8.15;;;;;;;;;;5023967;28;20052;-57
2023/06/11 02:14:27;;;;;;;12.43;7.60;;;;;;;;;;5025480;28;20060;-57
2023/06/11 02:16:53;;;;;;;12.30;7.80;;;;;;;;;;5016508;28;20033;-58
2023/06/11 02:19:19;;;;;;;11.15;8.07;;;;;;;;;;5035807;28;20042;-57
2023/06/11 02:21:46;;;;;;;10.10;7.78;;;;;;;;;;5023145;28;20034;-58
2023/06/11 02:24:12;;;;;;;11.73;7.53;;;;;;;;;;5025320;28;20392;-57
2023/06/11 02:26:38;;;;;;;11.85;7.75;;;;;;;;;;5025150;28;20037;-57
2023/06/11 02:29:04;;;;;;;12.95;7.85;;;;;;;;;;5019085;28;20057;-58
2023/06/11 02:31:30;;;;;;;10.20;7.57;;;;;;;;;;5021597;28;20036;-58
2023/06/11 02:33:56;;;;;;;10.77;7.82;;;;;;;;;;5024953;28;20422;-58
2023/06/11 02:36:22;;;;;;;9.15;7.03;;;;;;;;;;5016549;28;20034;-57
2023/06/11 02:38:49;;;;;;;10.30;7.40;;;;;;;;;;5019420;28;20045;-57
2023/06/11 02:41:15;;;;;;;10.05;7.18;;;;;;;;;;5015185;28;20038;-57
2023/06/11 02:43:42;;;;;;;10.15;7.50;;;;;;;;;;5017358;28;20049;-59
2023/06/11 02:46:08;;;;;;;10.43;7.18;;;;;;;;;;5016541;28;20052;-57
2023/06/11 02:48:34;;;;;;;11.13;7.60;;;;;;;;;;5014039;28;20052;-57
2023/06/11 02:51:00;;;;;;;10.40;7.30;;;;;;;;;;5020626;28;20053;-58
2023/06/11 02:53:26;;;;;;;9.90;7.50;;;;;;;;;;5017133;28;20037;-58
2023/06/11 02:55:52;;;;;;;9.75;7.35;;;;;;;;;;5024679;28;20506;-58
2023/06/11 02:58:19;;;;;;;10.48;7.60;;;;;;;;;;5020324;28;20434;-58
2023/06/11 03:00:45;;;;;;;9.57;7.28;;;;;;;;;;5029297;28;20037;-58
2023/06/11 03:03:11;;;;;;;10.88;8.05;;;;;;;;;;5022376;28;20424;-57
2023/06/11 03:05:41;;;;;;;11.80;7.80;;;;;;;;;;5023403;28;20033;-58
2023/06/11 03:08:08;;;;;;;11.90;8.35;;;;;;;;;;5021481;28;20057;-58
2023/06/11 03:10:34;;;;;;;10.95;7.93;;;;;;;;;;5031021;28;20046;-58
2023/06/11 03:13:00;;;;;;;10.77;7.65;;;;;;;;;;5017505;28;20045;-58
2023/06/11 03:15:26;;;;;;;10.57;7.90;;;;;;;;;;5010176;28;20033;-58
2023/06/11 03:17:52;;;;;;;18.65;8.45;;;;;;;;;;5022487;28;20033;-57
2023/06/11 03:20:20;;;;;;;11.30;8.30;;;;;;;;;;5050335;28;20491;-58
2023/06/11 03:22:46;;;;;;;11.52;8.02;;;;;;;;;;5021989;28;20048;-57
2023/06/11 03:25:15;;;;;;;12.32;8.57;;;;;;;;;;5021535;28;20041;-57
2023/06/11 03:27:42;;;;;;;12.23;8.02;;;;;;;;;;5013668;28;20058;-57
2023/06/11 03:30:08;;;;;;;10.27;8.20;;;;;;;;;;5018547;28;20518;-58
2023/06/11 03:32:38;;;;;;;13.77;8.45;;;;;;;;;;5021719;28;20034;-57
2023/06/11 03:35:05;;;;;;;11.57;8.20;;;;;;;;;;5024419;28;20053;-58
2023/06/11 03:37:32;;;;;;;12.90;8.80;;;;;;;;;;5015235;28;20048;-58
2023/06/11 03:39:59;;;;;;;11.35;8.43;;;;;;;;;;5026602;28;20042;-58
2023/06/11 03:42:28;;;;;;;12.75;8.68;;;;;;;;;;5016385;28;20033;-59
2023/06/11 03:44:55;;;;;;;11.37;8.23;;;;;;;;;;5012078;28;20030;-58
2023/06/11 03:47:22;;;;;;;11.75;8.85;;;;;;;;;;5012839;28;20057;-58
2023/06/11 03:49:49;;;;;;;11.15;7.93;;;;;;;;;;5046315;28;20057;-58
2023/06/11 03:52:16;;;;;;;14.20;9.35;;;;;;;;;;5015941;28;20038;-57
2023/06/11 03:54:42;;;;;;;13.23;8.70;;;;;;;;;;5022191;28;20060;-57
2023/06/11 03:57:08;;;;;;;10.65;8.68;;;;;;;;;;5022742;28;20045;-57
2023/06/11 03:59:34;;;;;;;9.90;8.30;;;;;;;;;;5018153;28;20034;-57
2023/06/11 04:02:00;;;;;;;12.07;9.10;;;;;;;;;;5012589;28;20091;-57
2023/06/11 04:04:26;;;;;;;12.65;8.88;;;;;;;;;;5023637;28;20402;-57
2023/06/11 04:06:53;;;;;;;11.68;8.18;;;;;;;;;;5014015;28;20527;-57
2023/06/11 04:09:19;;;;;;;11.10;8.35;;;;;;;;;;5017598;28;20038;-57
2023/06/11 04:11:46;;;;;;;10.88;8.50;;;;;;;;;;5018892;28;20057;-57
2023/06/11 04:14:13;;;;;;;11.23;8.52;;;;;;;;;;5022078;28;20033;-57
2023/06/11 04:16:39;;;;;;;10.95;8.50;;;;;;;;;;5020976;28;20045;-58
2023/06/11 04:19:06;;;;;;;11.38;8.35;;;;;;;;;;5018466;28;20040;-58
2023/06/11 04:21:32;;;;;;;11.77;8.15;;;;;;;;;;5017757;28;20054;-58
2023/06/11 04:23:58;;;;;;;11.43;8.55;;;;;;;;;;5021530;28;20499;-58
2023/06/11 04:26:25;;;;;;;13.75;8.90;;;;;;;;;;5033442;28;20048;-58
2023/06/11 04:28:52;;;;;;;11.18;8.52;;;;;;;;;;5010036;28;20050;-58
2023/06/11 04:31:20;;;;;;;11.60;8.73;;;;;;;;;;5016318;28;20053;-58
2023/06/11 04:33:47;;;;;;;13.50;8.60;;;;;;;;;;5022618;28;20407;-57
2023/06/11 04:36:14;;;;;;;11.48;8.27;;;;;;;;;;5022534;28;20056;-58
2023/06/11 04:38:44;;;;;;;12.35;9.18;;;;;;;;;;5017395;28;20060;-58
2023/06/11 04:41:12;;;;;;;12.95;9.00;;;;;;;;;;5002381;28;20037;-58
2023/06/11 04:43:41;;;;;;;11.00;8.67;;;;;;;;;;5015371;28;20036;-58
2023/06/11 04:46:07;;;;;;;12.20;8.82;;;;;;;;;;5013503;28;20041;-58
2023/06/11 04:48:34;;;;;;;12.00;8.82;;;;;;;;;;5011249;28;20037;-58
2023/06/11 04:51:01;;;;;;;10.85;9.10;;;;;;;;;;5017209;28;20037;-57
2023/06/11 04:53:31;;;;;;;10.73;8.57;;;;;;;;;;5022121;28;20052;-58
2023/06/11 04:56:02;;;;;;;10.68;8.43;;;;;;;;;;5022148;28;20029;-57
2023/06/11 04:58:30;;;;;;;13.38;8.95;;;;;;;;;;5017794;28;20038;-58
2023/06/11 05:00:57;;;;;;;11.90;8.70;;;;;;;;;;5012148;28;20050;-58
2023/06/11 05:03:26;;;;;;;10.70;9.07;;;;;;;;;;5020455;28;20053;-57
2023/06/11 05:05:54;;;;;;;11.18;8.60;;;;;;;;;;5020891;28;20037;-58
2023/06/11 05:08:25;;;;;;;9.70;8.20;;;;;;;;;;5016487;28;20047;-59
2023/06/11 05:10:54;;;;;;;12.20;8.45;;;;;;;;;;5050856;28;20512;-58
2023/06/11 05:13:25;;;;;;;12.38;8.90;;;;;;;;;;5021002;28;20041;-58
2023/06/11 05:15:56;;;;;;;11.43;8.50;;;;;;;;;;5020252;28;20056;-58
2023/06/11 05:18:25;;;;;;;11.77;8.27;;;;;;;;;;5032988;28;20049;-58
2023/06/11 05:20:51;;;;;;;10.15;7.88;;;;;;;;;;5015076;28;20033;-58
2023/06/11 05:23:22;;;;;;;13.43;8.48;;;;;;;;;;5017598;28;20048;-58
2023/06/11 05:25:50;;;;;;;10.50;8.20;;;;;;;;;;5023780;28;20052;-59
2023/06/11 05:28:19;;;;;;;12.65;9.40;;;;;;;;;;5020341;28;20515;-59
2023/06/11 05:30:49;;;;;;;12.38;8.48;;;;;;;;;;5004357;28;20053;-59
2023/06/11 05:33:16;;;;;;;11.60;8.70;;;;;;;;;;5026488;28;20037;-59
2023/06/11 05:35:44;;;;;;;11.45;8.35;;;;;;;;;;5006873;28;20045;-59
2023/06/11 05:38:10;;;;;;;10.68;8.32;;;;;;;;;;5014557;28;20046;-59
2023/06/11 05:40:38;;;;;;;11.82;8.40;;;;;;;;;;5030309;28;20056;-59
2023/06/11 05:43:06;;;;;;;10.93;8.77;;;;;;;;;;5019510;28;20041;-59
2023/06/11 05:45:33;;;;;;;11.63;8.50;;;;;;;;;;5044724;28;20057;-59
2023/06/11 05:48:00;;;;;;;11.00;9.10;;;;;;;;;;5013542;28;20420;-58
2023/06/11 05:50:29;;;;;;;14.02;9.40;;;;;;;;;;5020929;28;20045;-58
2023/06/11 05:52:56;;;;;;;15.00;9.32;;;;;;;;;;5030147;28;20056;-58
2023/06/11 05:55:23;;;;;;;13.02;9.60;;;;;;;;;;5022692;28;20039;-58
2023/06/11 05:57:49;;;;;;;13.25;9.15;;;;;;;;;;5020593;28;20038;-59
2023/06/11 06:00:16;;;;;;;10.52;8.85;;;;;;;;;;5024211;28;20045;-58
2023/06/11 06:02:47;;;;;;;11.80;9.63;;;;;;;;;;5025463;28;20410;-58
2023/06/11 06:05:21;;;;;;;11.98;9.40;;;;;;;;;;5020659;28;20045;-58
2023/06/11 06:07:47;;;;;;;10.73;8.88;;;;;;;;;;5020707;28;20042;-58
2023/06/11 06:10:14;;;;;;;12.68;9.40;;;;;;;;;;5025341;28;20037;-58
2023/06/11 06:12:40;;;;;;;11.45;9.38;;;;;;;;;;5025699;28;20052;-59
2023/06/11 06:15:09;;;;;;;10.68;8.68;;;;;;;;;;5021985;28;20045;-58
2023/06/11 06:17:37;;;;;;;13.93;9.07;;;;;;;;;;5020254;28;20030;-60
2023/06/11 06:20:04;;;;;;;10.60;8.98;;;;;;;;;;5025053;28;20056;-59
2023/06/11 06:22:31;;;;;;;11.80;9.07;;;;;;;;;;5025481;28;20049;-59
2023/06/11 06:24:57;;;;;;;12.68;9.30;;;;;;;;;;5005108;28;20538;-59
2023/06/11 06:27:24;;;;;;;11.13;9.50;;;;;;;;;;5015131;28;20408;-59
2023/06/11 06:29:50;;;;;;;10.48;8.63;;;;;;;;;;5023847;28;20403;-59
2023/06/11 06:32:17;;;;;;;11.18;8.88;;;;;;;;;;5023652;28;20060;-59
2023/06/11 06:34:43;;;;;;;13.00;9.65;;;;;;;;;;5053724;28;20044;-58
2023/06/11 06:37:12;;;;;;;10.60;9.30;;;;;;;;;;5018085;28;20034;-59
2023/06/11 06:39:40;;;;;;;16.03;11.07;;;;;;;;;;5013766;28;20037;-58
2023/06/11 06:42:07;;;;;;;11.90;9.80;;;;;;;;;;5020173;28;20406;-59
2023/06/11 06:44:38;;;;;;;12.07;9.13;;;;;;;;;;5013953;28;20038;-59
2023/06/11 06:47:05;;;;;;;16.77;12.60;;;;;;;;;;5015408;28;20518;-59
2023/06/11 06:49:32;;;;;;;13.10;10.25;;;;;;;;;;5015214;28;20042;-59
2023/06/11 06:51:59;;;;;;;15.50;9.40;;;;;;;;;;5024764;28;20041;-59
2023/06/11 06:54:27;;;;;;;12.80;9.37;;;;;;;;;;5020770;28;20029;-58
2023/06/11 06:56:53;;;;;;;16.95;10.90;;;;;;;;;;5022556;28;20403;-59
2023/06/11 06:59:20;;;;;;;13.95;10.30;;;;;;;;;;5021134;28;20033;-59
2023/06/11 07:01:47;;;;;;;13.73;10.60;;;;;;;;;;5024176;28;20033;-59
2023/06/11 07:04:13;;;;;;;12.57;9.65;;;;;;;;;;5021566;28;20518;-58
2023/06/11 07:06:40;;;;;;;11.27;9.23;;;;;;;;;;5020861;28;20046;-58
2023/06/11 07:09:08;;;;;;;12.00;8.18;;;;;;;;;;5022107;28;20054;-57
2023/06/11 07:11:36;;;;;;;12.60;9.02;;;;;;;;;;5024422;28;20048;-58
2023/06/11 07:14:03;;;;;;;10.35;8.80;;;;;;;;;;5021974;28;20056;-58
2023/06/11 07:16:30;;;;;;;16.48;10.88;;;;;;;;;;5020591;28;20411;-58
2023/06/11 07:19:00;;;;;;;12.23;9.50;;;;;;;;;;5012780;28;20037;-58
2023/06/11 07:21:26;;;;;;;14.02;9.10;;;;;;;;;;5022428;28;20068;-59
2023/06/11 07:23:52;;;;;;;16.33;9.77;;;;;;;;;;5021324;28;20534;-58
2023/06/11 07:26:19;;;;;;;11.05;9.50;;;;;;;;;;5004276;28;20045;-60
2023/06/11 07:28:46;;;;;;;15.75;10.52;;;;;;;;;;5017117;28;20415;-59
2023/06/11 07:31:13;;;;;;;12.77;9.35;;;;;;;;;;5022178;28;20052;-58
2023/06/11 07:33:42;;;;;;;11.98;9.10;;;;;;;;;;5020648;28;20041;-58
2023/06/11 07:36:08;;;;;;;10.60;9.00;;;;;;;;;;5019195;28;20038;-59
2023/06/11 07:38:35;;;;;;;13.95;9.48;;;;;;;;;;5021525;28;20510;-59
2023/06/11 07:41:01;;;;;;;13.00;9.35;;;;;;;;;;5038998;28;20427;-58
2023/06/11 07:43:28;;;;;;;10.88;8.73;;;;;;;;;;5011357;28;20033;-58
2023/06/11 07:45:54;;;;;;;12.88;9.63;;;;;;;;;;4995648;28;20037;-59
2023/06/11 07:48:21;;;;;;;10.70;9.60;;;;;;;;;;5017419;28;20053;-58
2023/06/11 07:50:49;;;;;;;10.65;9.40;;;;;;;;;;5018275;28;20052;-58
2023/06/11 07:53:18;;;;;;;15.07;9.70;;;;;;;;;;5005574;28;20037;-58
2023/06/11 07:55:47;;;;;;;12.15;9.25;;;;;;;;;;5019477;28;20046;-58
2023/06/11 07:58:13;;;;;;;12.63;9.10;;;;;;;;;;5022897;28;20040;-59
2023/06/11 08:00:40;;;;;;;12.60;8.75;;;;;;;;;;5023030;28;20585;-59
2023/06/11 08:03:06;;;;;;;9.75;8.10;;;;;;;;;;5022244;28;20052;-58
2023/06/11 08:05:32;;;;;;;16.15;9.55;;;;;;;;;;5020398;28;20054;-58
2023/06/11 08:07:58;;;;;;;10.30;8.75;;;;;;;;;;5021512;28;20065;-58
2023/06/11 08:10:24;;;;;;;13.70;8.32;;;;;;;;;;5023696;28;20045;-58
2023/06/11 08:12:51;;;;;;;9.75;8.35;;;;;;;;;;5053522;28;20033;-58
2023/06/11 08:15:17;;;;;;;11.55;8.35;;;;;;;;;;5020393;28;20081;-59
2023/06/11 08:17:44;;;;;;;10.23;7.97;;;;;;;;;;5020730;28;20400;-59
2023/06/11 08:20:10;;;;;;;10.30;8.35;;;;;;;;;;5023180;28;20041;-58
2023/06/11 08:22:37;;;;;;;9.73;8.25;;;;;;;;;;5023439;28;20371;-58
2023/06/11 08:25:03;;;;;;;11.32;8.05;;;;;;;;;;5019196;28;20038;-58
2023/06/11 08:27:29;;;;;;;10.85;8.20;;;;;;;;;;5011156;28;20522;-59
2023/06/11 08:29:55;;;;;;;13.60;8.45;;;;;;;;;;5012710;28;20056;-59
2023/06/11 08:32:22;;;;;;;13.32;8.52;;;;;;;;;;5016293;28;20041;-59
2023/06/11 08:34:48;;;;;;;12.43;8.98;;;;;;;;;;5009317;28;20399;-58
2023/06/11 08:37:14;;;;;;;13.95;8.20;;;;;;;;;;5013993;28;20491;-59
2023/06/11 08:39:41;;;;;;;10.45;8.65;;;;;;;;;;5017173;28;20048;-59
2023/06/11 08:42:07;;;;;;;11.27;8.50;;;;;;;;;;5004934;28;20037;-59
2023/06/11 08:44:34;;;;;;;12.40;8.15;;;;;;;;;;5012214;28;20041;-60
2023/06/11 08:47:02;;;;;;;13.07;8.18;;;;;;;;;;5014334;28;20045;-60
2023/06/11 08:49:30;;;;;;;10.77;8.13;;;;;;;;;;5021113;28;20519;-59
2023/06/11 08:52:02;;;;;;;10.48;7.95;;;;;;;;;;5022183;28;20048;-59
2023/06/11 08:54:28;;;;;;;9.70;8.20;;;;;;;;;;5019012;28;20065;-59
2023/06/11 08:56:55;;;;;;;11.90;7.95;;;;;;;;;;5018978;28;20110;-59
2023/06/11 08:59:21;;;;;;;9.50;8.27;;;;;;;;;;5021909;28;20406;-59
2023/06/11 09:01:50;;;;;;;10.07;7.85;;;;;;;;;;5022011;28;20040;-59
2023/06/11 09:04:17;;;;;;;9.88;8.30;;;;;;;;;;5019331;28;20037;-59
2023/06/11 09:06:58;;;;;;;10.90;8.27;;;;;;;;;;5015347;28;20082;-59
2023/06/11 09:09:25;;;;;;;10.65;8.35;;;;;;;;;;5024967;28;20029;-59
2023/06/11 09:11:51;;;;;;;12.57;8.70;;;;;;;;;;5021821;28;20053;-59
2023/06/11 09:14:17;;;;;;;11.23;9.18;;;;;;;;;;5018788;28;20058;-58
2023/06/11 09:16:45;;;;;;;10.32;8.30;;;;;;;;;;5020211;28;20050;-59
2023/06/11 09:19:14;;;;;;;13.27;8.45;;;;;;;;;;5014416;28;20045;-59
2023/06/11 09:21:54;;;;;;;10.80;8.70;;;;;;;;;;5022806;28;20041;-59
2023/06/11 09:24:22;;;;;;;11.27;8.77;;;;;;;;;;5014543;28;20065;-59
2023/06/11 09:26:58;;;;;;;14.45;8.48;;;;;;;;;;5001636;28;20036;-59
2023/06/11 09:29:26;;;;;;;9.73;8.73;;;;;;;;;;5009154;28;20037;-60
2023/06/11 09:32:05;;;;;;;11.07;8.93;;;;;;;;;;5009588;28;20510;-61
2023/06/11 09:34:32;;;;;;;10.50;8.98;;;;;;;;;;5013688;28;20395;-60
2023/06/11 09:37:00;;;;;;;11.25;9.13;;;;;;;;;;5011561;28;20038;-61
2023/06/11 09:39:28;;;;;;;9.75;8.73;;;;;;;;;;5004780;28;20038;-60
2023/06/11 09:41:54;;;;;;;11.48;8.90;;;;;;;;;;5027072;28;20515;-62
2023/06/11 09:44:21;;;;;;;9.95;8.48;;;;;;;;;;5012607;28;20040;-61
2023/06/11 09:46:48;;;;;;;12.88;9.48;;;;;;;;;;5014202;28;20038;-61
2023/06/11 09:49:16;;;;;;;11.30;9.00;;;;;;;;;;5012108;28;20046;-61
2023/06/11 09:51:43;;;;;;;13.85;9.55;;;;;;;;;;5007132;28;20053;-60
2023/06/11 09:54:12;;;;;;;11.02;9.10;;;;;;;;;;5008111;28;20049;-62
2023/06/11 09:56:39;;;;;;;11.90;9.10;;;;;;;;;;5008671;28;20049;-62
2023/06/11 09:59:05;;;;;;;14.15;10.07;;;;;;;;;;5037755;28;20411;-60
2023/06/11 10:01:33;;;;;;;12.27;9.02;;;;;;;;;;5008104;28;20064;-60
2023/06/11 10:04:00;;;;;;;12.70;9.30;;;;;;;;;;5008983;28;20056;-61
2023/06/11 10:06:35;;;;;;;11.63;8.85;;;;;;;;;;5015225;28;20049;-60
2023/06/11 10:09:06;;;;;;;11.07;9.35;;;;;;;;;;5018578;28;20695;-60
2023/06/11 10:11:40;;;;;;;14.65;8.75;;;;;;;;;;5020082;28;20056;-61
2023/06/11 10:14:12;;;;;;;12.82;9.20;;;;;;;;;;5025677;28;20045;-60
2023/06/11 10:16:38;;;;;;;12.57;9.52;;;;;;;;;;5024379;28;20037;-60
2023/06/11 10:19:09;;;;;;;13.02;8.82;;;;;;;;;;5020367;28;20066;-59
2023/06/11 10:21:44;;;;;;;11.50;9.38;;;;;;;;;;5023133;28;20416;-59
2023/06/11 10:24:24;;;;;;;10.77;9.18;;;;;;;;;;5025550;28;20506;-60
2023/06/11 10:27:10;;;;;;;13.40;9.07;;;;;;;;;;5021896;28;20037;-59
2023/06/11 10:29:47;;;;;;;15.32;9.55;;;;;;;;;;5020921;28;20179;-59
2023/06/11 10:32:20;;;;;;;13.10;9.85;;;;;;;;;;5015377;28;20045;-60
2023/06/11 10:34:55;;;;;;;12.48;9.63;;;;;;;;;;5021120;28;20058;-61
2023/06/11 10:37:32;;;;;;;12.65;9.77;;;;;;;;;;5022823;28;20034;-59
2023/06/11 10:39:59;;;;;;;17.38;9.98;;;;;;;;;;5024787;28;20399;-60
2023/06/11 10:42:27;;;;;;;14.73;9.73;;;;;;;;;;5018075;28;20528;-60
2023/06/11 10:44:57;;;;;;;;;;;;;;;;;;5013310;28;20050;-60
2023/06/11 10:47:23;;;;;;;13.18;9.20;;;;;;;;;;5018756;28;19916;-61
2023/06/11 10:49:50;;;;;;;10.98;9.20;;;;;;;;;;5024122;28;20052;-60
2023/06/11 10:52:16;;;;;;;16.15;9.50;;;;;;;;;;5020314;28;20046;-61
2023/06/11 10:54:45;;;;;;;9.98;8.85;;;;;;;;;;5018993;28;20041;-60
2023/06/11 10:57:13;;;;;;;11.68;10.35;;;;;;;;;;5019194;28;20050;-61
2023/06/11 10:59:41;;;;;;;17.27;9.70;;;;;;;;;;5025261;28;20033;-61
2023/06/11 11:02:13;;;;;;;12.47;10.13;;;;;;;;;;5018895;28;20037;-60
2023/06/11 11:04:50;;;;;;;17.38;10.90;;;;;;;;;;5018766;28;20050;-61
2023/06/11 11:07:17;;;;;;;12.27;9.65;;;;;;;;;;5023523;28;20041;-60
2023/06/11 11:09:43;;;;;;;16.40;13.07;;;;;;;;;;5012732;28;20547;-60
2023/06/11 11:12:11;;;;;;;21.02;15.32;;;;;;;;;;5013291;28;20034;-59
2023/06/11 11:14:38;;;;;;;12.23;9.88;;;;;;;;;;5022225;28;20060;-60
2023/06/11 11:17:05;;;;;;;19.58;12.68;;;;;;;;;;5022719;28;20033;-60
2023/06/11 11:19:33;;;;;;;36.97;24.35;;;;;;;;;;5008450;28;20034;-60
2023/06/11 11:22:00;;;;;;;20.85;16.33;;;;;;;;;;5011429;28;20041;-60
2023/06/11 11:24:26;;;;;;;19.85;16.35;;;;;;;;;;5014718;28;20438;-61
2023/06/11 11:26:53;;;;;;;17.13;14.52;;;;;;;;;;5015235;28;20452;-61
2023/06/11 11:29:19;;;;;;;163.15;86.82;;;;;;;;;;5019878;28;20060;-59
2023/06/11 11:31:46;;;;;;;47.53;29.75;;;;;;;;;;5014605;28;20045;-59
2023/06/11 11:34:12;;;;;;;59.30;37.65;;;;;;;;;;5021245;28;20094;-59
2023/06/11 11:36:39;;;;;;;15.77;11.43;;;;;;;;;;5024663;28;20037;-60
2023/06/11 11:39:11;;;;;;;26.23;15.32;;;;;;;;;;5019307;28;20029;-61
2023/06/11 11:41:46;;;;;;;42.03;28.75;;;;;;;;;;5020043;28;20061;-59
2023/06/11 11:44:14;;;;;;;33.33;21.48;;;;;;;;;;5032101;28;20034;-61
2023/06/11 11:46:40;;;;;;;24.20;14.77;;;;;;;;;;5025597;28;20052;-59
2023/06/11 11:49:08;;;;;;;25.02;14.93;;;;;;;;;;5019673;28;20050;-59
2023/06/11 11:51:40;;;;;;;26.17;17.70;;;;;;;;;;5013427;28;20034;-59
2023/06/11 11:54:07;;;;;;;24.25;15.15;;;;;;;;;;5022926;28;20502;-59
2023/06/11 11:56:35;;;;;;;16.00;9.85;;;;;;;;;;5016807;28;20037;-60
2023/06/11 11:59:01;;;;;;;17.17;11.13;;;;;;;;;;5016101;28;20037;-60
2023/06/11 12:01:32;;;;;;;15.10;11.25;;;;;;;;;;5017546;28;20411;-60
2023/06/11 12:04:05;;;;;;;11.45;9.15;;;;;;;;;;5010045;28;20057;-60
2023/06/11 12:06:31;;;;;;;13.43;9.32;;;;;;;;;;5010330;28;20045;-59
2023/06/11 12:08:58;;;;;;;13.15;9.18;;;;;;;;;;5016965;28;20037;-59
2023/06/11 12:11:24;;;;;;;12.30;9.18;;;;;;;;;;5019918;28;20045;-60
2023/06/11 12:13:50;;;;;;;15.23;9.30;;;;;;;;;;5018288;28;20045;-59
2023/06/11 12:16:16;;;;;;;13.20;9.13;;;;;;;;;;5023060;28;20049;-58
2023/06/11 12:18:43;;;;;;;13.70;9.27;;;;;;;;;;5021326;28;20034;-59
2023/06/11 12:21:09;;;;;;;14.23;9.48;;;;;;;;;;5016888;28;20407;-59
2023/06/11 12:23:35;;;;;;;12.98;9.32;;;;;;;;;;5019146;28;20065;-59
2023/06/11 12:26:02;;;;;;;13.20;8.68;;;;;;;;;;5015111;28;20052;-59
2023/06/11 12:28:28;;;;;;;11.98;9.10;;;;;;;;;;5018521;28;20121;-60
2023/06/11 12:30:55;;;;;;;13.88;8.80;;;;;;;;;;5011969;28;20057;-60
2023/06/11 12:33:21;;;;;;;12.77;9.25;;;;;;;;;;5021768;28;20061;-60
2023/06/11 12:35:47;;;;;;;14.73;9.32;;;;;;;;;;5022344;28;20057;-61
2023/06/11 12:38:15;;;;;;;12.35;9.77;;;;;;;;;;5017692;28;20515;-60
2023/06/11 12:40:41;;;;;;;12.38;9.55;;;;;;;;;;5019894;28;20050;-61
2023/06/11 12:43:07;;;;;;;12.02;8.63;;;;;;;;;;5012313;28;20057;-60
2023/06/11 12:45:37;;;;;;;12.02;9.00;;;;;;;;;;5018167;28;20410;-59
2023/06/11 12:48:04;;;;;;;13.32;9.40;;;;;;;;;;5018231;28;20048;-60
2023/06/11 12:50:30;;;;;;;13.52;9.65;;;;;;;;;;5019008;28;20045;-59
2023/06/11 12:52:57;;;;;;;10.65;9.48;;;;;;;;;;5014283;28;20059;-61
2023/06/11 12:55:24;;;;;;;11.40;9.70;;;;;;;;;;5022113;28;20033;-60
2023/06/11 12:57:50;;;;;;;15.88;9.65;;;;;;;;;;5021897;28;20038;-60
2023/06/11 13:00:17;;;;;;;15.00;11.45;;;;;;;;;;5017133;28;20072;-60
2023/06/11 13:02:43;;;;;;;13.65;10.30;;;;;;;;;;5008746;28;20072;-61
2023/06/11 13:05:10;;;;;;;13.40;10.00;;;;;;;;;;5014194;28;20025;-61
2023/06/11 13:07:36;;;;;;;14.30;10.18;;;;;;;;;;5020916;28;20428;-63
2023/06/11 13:10:04;;;;;;;12.63;9.90;;;;;;;;;;5017787;28;20042;-62
2023/06/11 13:12:30;;;;;;;12.80;9.70;;;;;;;;;;5007952;28;20057;-61
2023/06/11 13:14:57;;;;;;;12.30;9.82;;;;;;;;;;5006920;28;20057;-61
2023/06/11 13:17:23;;;;;;;13.77;9.70;;;;;;;;;;5017156;28;20049;-61
2023/06/11 13:19:52;;;;;;;13.50;9.45;;;;;;;;;;5017033;28;20037;-60
2023/06/11 13:22:18;;;;;;;11.57;9.95;;;;;;;;;;5016213;28;20049;-61
2023/06/11 13:24:44;;;;;;;13.77;9.98;;;;;;;;;;5022320;28;20041;-61
2023/06/11 13:27:11;;;;;;;12.07;9.40;;;;;;;;;;5021770;28;20045;-61
2023/06/11 13:29:37;;;;;;;13.07;9.95;;;;;;;;;;5014033;28;20053;-62
2023/06/11 13:32:03;;;;;;;11.10;9.55;;;;;;;;;;5012381;28;20388;-61
2023/06/11 13:34:29;;;;;;;12.07;9.77;;;;;;;;;;5021930;28;20044;-61
2023/06/11 13:36:56;;;;;;;13.48;9.38;;;;;;;;;;5021681;28;20061;-61
2023/06/11 13:39:23;;;;;;;12.70;9.18;;;;;;;;;;5020942;28;20050;-62
2023/06/11 13:41:50;;;;;;;16.33;9.88;;;;;;;;;;5019097;28;20527;-62
2023/06/11 13:44:16;;;;;;;16.17;9.50;;;;;;;;;;5017359;28;20037;-62
2023/06/11 13:46:42;;;;;;;12.43;9.43;;;;;;;;;;5024169;28;20430;-62
2023/06/11 13:49:08;;;;;;;13.65;10.40;;;;;;;;;;5015273;28;20041;-62
2023/06/11 13:51:35;;;;;;;15.20;10.27;;;;;;;;;;5012967;28;20038;-61
2023/06/11 13:54:01;;;;;;;14.88;10.82;;;;;;;;;;5023302;28;20551;-62
2023/06/11 13:56:27;;;;;;;13.63;10.75;;;;;;;;;;5018543;28;20044;-62
2023/06/11 13:58:54;;;;;;;13.80;9.95;;;;;;;;;;5025963;28;20407;-62
2023/06/11 14:01:20;;;;;;;12.68;9.25;;;;;;;;;;5024592;28;20034;-62
2023/06/11 14:03:46;;;;;;;13.48;10.00;;;;;;;;;;5018321;28;20042;-62
2023/06/11 14:06:12;;;;;;;15.18;9.98;;;;;;;;;;5009302;28;20594;-62
2023/06/11 14:08:38;;;;;;;19.52;12.35;;;;;;;;;;5007856;28;20053;-62
2023/06/11 14:11:04;;;;;;;11.32;10.13;;;;;;;;;;5005670;28;20073;-62
2023/06/11 14:13:30;;;;;;;14.80;10.30;;;;;;;;;;5019269;28;20050;-62
2023/06/11 14:15:57;;;;;;;16.58;10.15;;;;;;;;;;5011865;28;20033;-62
2023/06/11 14:18:23;;;;;;;11.77;9.38;;;;;;;;;;5021093;28;20041;-62
2023/06/11 14:20:49;;;;;;;12.73;9.57;;;;;;;;;;5022591;28;20156;-62
2023/06/11 14:23:16;;;;;;;10.27;9.00;;;;;;;;;;5018327;28;20086;-62
2023/06/11 14:25:42;;;;;;;13.85;9.30;;;;;;;;;;5025341;28;20034;-62
2023/06/11 14:28:08;;;;;;;12.32;9.20;;;;;;;;;;5014662;28;20046;-62
2023/06/11 14:30:34;;;;;;;12.43;9.52;;;;;;;;;;5015969;28;20054;-62
2023/06/11 14:33:01;;;;;;;12.98;9.13;;;;;;;;;;5016667;28;20048;-62